Cairo, Egypt
Current Conditions -  °F | °C
As of 6:00 PM on Sunday 23 Nov 2014 (Local Time) from HECA Reporting Station
Scattered Clouds Scattered Clouds  
Wind Chill: 64°   Ceiling: Unl
Heat Index: 64°   Visibility: 6mi
Dew Point: 48°   Wind: 9mph
Humidity: 56%   Direction: 300°WNW
Pressure: 30"   Gusts: NA
Location:  30.06°N, 31.25°E
Report Text: HECA 231600Z 30008KT 9999 SCT025 SCT070 18/09 Q1016 NOSIG
Loading
Personal Weather Stations






























Interactive Weather Map New forecast layout! Learn more

10-Day Weather Forecast

Advertisements
Track Severe Weather on mobile